Afton, Iowa
Current Conditions -  °F | °C
As of 12:15 PM on Wednesday 26 Nov 2014 (Local Time) from KCSQ Reporting Station
Haze Haze  
Wind Chill: 17°   Ceiling: 400
Heat Index: 30°   Visibility: 2mi
Dew Point: 30°   Wind: 21mph
Humidity: 100%   Direction: 340°NNW
Pressure: 29.95"   Gusts: NA
Location:  41.03°N, 94.2°W
Report Text: KCSQ 261815Z AUTO 34018KT 2SM BR OVC004 M01/M01 A2995 RMK AO2
Loading
Personal Weather Stations






























Interactive Weather Map New forecast layout! Learn more

10-Day Weather Forecast

Advertisements
Track Severe Weather on mobile